ADDS METAR Data INFO
IDs: Format: Raw Decoded Include TAF

Data at: 0643 UTC 23 Feb 2018

KHBG 230638Z AUTO 11003KT 8SM BKN007 BKN011 19/19 A3033 RMK AO2 T01940194
KHBG 230627Z AUTO 09003KT 8SM FEW006 SCT011 19/19 A3033 RMK AO2 T01890189
KHBG 230553Z AUTO 16004KT 10SM CLR 19/19 A3033 RMK AO2 SLP266 T01940194 10250 20194 402940194 58000
KHBG 230453Z AUTO 19007KT 10SM CLR 21/20 A3032 RMK AO2 SLP266 T02060200
KHBG 230353Z AUTO 17008KT 10SM CLR 21/20 A3033 RMK AO2 SLP267 T02110200
KHBG 230253Z AUTO 17006KT 10SM CLR 21/19 A3033 RMK AO2 SLP266 T02110194 51016
KHBG 230153Z AUTO 17004KT 10SM CLR 22/19 A3031 RMK AO2 SLP262 T02220194
KHBG 230053Z AUTO 17005KT 10SM CLR 23/19 A3030 RMK AO2 SLP256 T02280189
KHBG 222353Z AUTO 18009KT 10SM CLR 25/19 A3028 RMK AO2 SLP250 T02500189 10294 20250 53005
KHBG 222253Z AUTO 18012KT 10SM CLR 27/18 A3027 RMK AO2 SLP247 T02670183
KHBG 222153Z AUTO 18011G20KT 10SM CLR 28/18 A3026 RMK AO2 SLP243 T02780178
KHBG 222053Z AUTO 17010KT 10SM SCT046 28/18 A3026 RMK AO2 SLP245 T02830183 56022
KHBG 221953Z AUTO 18010KT 10SM FEW055 29/18 A3028 RMK AO2 SLP249 T02890183
KHBG 221853Z AUTO 18011G17KT 10SM FEW042 29/18 A3030 RMK AO2 SLP258 T02940183
KHBG 221753Z AUTO 17012G17KT 10SM FEW038 FEW046 FEW060 28/19 A3033 RMK AO2 SLP267 T02780189 10278 20200 58008
KHBG 221653Z AUTO 14009KT 10SM CLR 27/21 A3035 RMK AO2 SLP273 T02670206
KHBG 221553Z AUTO 16009KT 10SM FEW019 FEW041 25/21 A3036 RMK AO2 SLP276 T02500206
KHBG 221545Z AUTO 15007KT 10SM FEW019 FEW024 SCT041 25/21 A3036 RMK AO2 T02500211
KHBG 221526Z AUTO 00000KT 10SM SCT014 BKN022 OVC039 24/22 A3036 RMK AO2 T02390217
KHBG 221515Z AUTO 14004KT 10SM BKN012 BKN022 OVC032 24/22 A3035 RMK AO2 T02390217
KHBG 221453Z AUTO 13005KT 10SM OVC031 23/22 A3035 RMK AO2 SLP275 T02330217 53017
KHBG 221407Z AUTO 13004KT 8SM FEW017 SCT024 BKN030 22/22 A3034 RMK AO2 T02220217
KHBG 221353Z AUTO 12005KT 8SM FEW008 BKN022 OVC030 22/22 A3034 RMK AO2 SLP269 T02170217
KHBG 221337Z AUTO 12005KT 7SM BKN029 21/21 A3033 RMK AO2 T02110211
KHBG 221329Z AUTO 13004KT 7SM SCT029 21/21 A3033 RMK AO2 T02060206
KHBG 221253Z AUTO 13004KT 8SM FEW009 BKN021 21/21 A3032 RMK AO2 SLP263 T02060206
KHBG 221232Z AUTO 13005KT 7SM SCT009 BKN023 20/20 A3031 RMK AO2 T02000200
KHBG 221222Z AUTO 14004KT 8SM FEW013 SCT025 BKN040 20/20 A3031 RMK AO2 T02000200
KHBG 221212Z AUTO 15003KT 8SM SCT014 BKN025 BKN042 21/21 A3030 RMK AO2 T02060206
KHBG 221153Z AUTO 13003KT 9SM BKN013 BKN019 OVC041 21/21 A3030 RMK AO2 SLP258 T02110211 10222 20200 53007
KHBG 221053Z AUTO 00000KT 9SM SCT011 OVC017 21/21 A3029 RMK AO2 SLP253 T02110211
KHBG 221049Z AUTO 12003KT 9SM BKN012 OVC018 21/21 A3029 RMK AO2
KHBG 221013Z AUTO 13004KT 7SM BKN016 OVC023 21/21 A3028 RMK AO2 T02060206
KHBG 221000Z AUTO 13004KT 6SM BR BKN014 OVC019 20/20 A3028 RMK AO2 T02000200
KHBG 220953Z AUTO 13005KT 6SM BR SCT014 BKN019 21/21 A3028 RMK AO2 SLP250 T02060206
KHBG 220914Z AUTO 15004KT 7SM SCT009 OVC015 21/21 A3028 RMK AO2 T02060206
KHBG 220853Z AUTO 15004KT 7SM BKN011 OVC018 21/21 A3028 RMK AO2 SLP250 T02110211 58001
KHBG 220846Z AUTO 14004KT 7SM OVC013 21/21 A3028 RMK AO2 T02110211
KHBG 220753Z AUTO 15006KT 10SM FEW013 BKN022 OVC026 22/22 A3028 RMK AO2 SLP250 T02220217
KHBG 220746Z AUTO 15007KT 10SM SCT013 BKN022 OVC028 22/22 A3028 RMK AO2 T02220217
KHBG 220725Z AUTO 16005KT 9SM BKN013 OVC020 22/22 A3028 RMK AO2 T02170217
KHBG 220702Z AUTO 14006KT 9SM BKN015 OVC021 22/22 A3028 RMK AO2 T02170217
KHBG 220653Z AUTO 14005KT 9SM BKN014 OVC021 22/22 A3028 RMK AO2 SLP251 T02170217
KHBG 220628Z AUTO 15004KT 9SM BKN014 OVC021 22/22 A3028 RMK AO2 T02170217
KHBG 220613Z AUTO 13007KT 8SM SCT012 BKN019 OVC070 22/22 A3028 RMK AO2 T02170217
KHBG 220553Z AUTO 14005KT 9SM BKN014 BKN021 OVC070 22/22 A3028 RMK AO2 SLP251 60000 T02170217 10244 20217 402780194 51006
KHBG 220540Z AUTO 15005KT 8SM BKN014 OVC021 22/22 A3028 RMK AO2 T02170217
KHBG 220453Z AUTO 14006KT 9SM FEW020 OVC024 22/22 A3028 RMK AO2 SLP250 T02170217
KHBG 220353Z AUTO 15006KT 10SM SCT015 BKN025 OVC065 22/22 A3027 RMK AO2 SLP248 T02220217
KHBG 220042Z AUTO 16007KT 10SM BKN021 BKN032 BKN060 23/22 A3023 RMK AO2 RAB15E32 P0000 T02330217
KHBG 220017Z AUTO 15011KT 10SM -RA FEW018 SCT025 BKN031 24/21 A3022 RMK AO2 RAB15 P0000 T02390211
KHBG 220002Z AUTO 16008KT 10SM BKN026 BKN030 24/21 A3023 RMK AO2 T02390211
KHBG 212353Z AUTO 17009KT 10SM SCT026 24/21 A3022 RMK AO2 SLP231 T02440211 10278 20244 53016
KHBG 212253Z AUTO 17013G24KT 10SM CLR 26/21 A3020 RMK AO2 SLP223 T02560206
KHBG 212153Z AUTO 18014G24KT 10SM FEW080 27/21 A3019 RMK AO2 PK WND 17026/2110 SLP219 T02670206
KHBG 212053Z AUTO 18019G27KT 10SM CLR 27/20 A3018 RMK AO2 PK WND 19027/2046 SLP215 T02720200 56024
KHBG 211953Z AUTO 16016G24KT 10SM SCT033 BKN045 BKN080 27/20 A3019 RMK AO2 SLP220 T02720200
KHBG 211853Z AUTO 15015G21KT 10SM BKN034 BKN070 28/21 A3021 RMK AO2 PK WND 14028/1817 SLP227 T02780206